sensor_id;sensor_type;location;lat;lon;timestamp;pressure;altitude;pressure_sealevel;temperature;humidity
49945;BME280;35838;49.134;9.212;2023-12-20T09:04:36;100168.03;;;5.44;100.00
49945;BME280;35838;49.134;9.212;2023-12-20T09:06:10;100158.56;;;5.43;100.00
49945;BME280;35838;49.134;9.212;2023-12-20T09:07:41;100155.34;;;5.53;100.00
49945;BME280;35838;49.134;9.212;2023-12-20T09:09:15;100154.53;;;5.56;100.00
49945;BME280;35838;49.134;9.212;2023-12-20T09:10:46;100156.34;;;5.58;100.00
49945;BME280;35838;49.134;9.212;2023-12-20T09:12:19;100157.34;;;5.67;100.00
49945;BME280;35838;49.134;9.212;2023-12-20T09:13:51;100155.63;;;5.65;100.00
49945;BME280;35838;49.134;9.212;2023-12-20T09:15:25;100155.53;;;5.62;100.00
49945;BME280;35838;49.134;9.212;2023-12-20T09:16:56;100159.88;;;5.65;100.00
49945;BME280;35838;49.134;9.212;2023-12-20T09:18:31;100159.09;;;5.68;100.00
49945;BME280;35838;49.134;9.212;2023-12-20T09:20:06;100168.72;;;5.78;100.00
49945;BME280;35838;49.134;9.212;2023-12-20T09:21:40;100162.59;;;5.71;100.00
49945;BME280;35838;49.134;9.212;2023-12-20T09:23:11;100159.31;;;5.80;100.00
49945;BME280;35838;49.134;9.212;2023-12-20T09:24:45;100168.03;;;5.87;100.00
49945;BME280;35838;49.134;9.212;2023-12-20T09:26:16;100162.88;;;5.85;100.00
49945;BME280;35838;49.134;9.212;2023-12-20T09:27:49;100166.09;;;5.75;100.00
49945;BME280;35838;49.134;9.212;2023-12-20T09:29:20;100173.22;;;5.88;100.00
49945;BME280;35838;49.134;9.212;2023-12-20T09:30:55;100173.28;;;5.91;100.00
49945;BME280;35838;49.134;9.212;2023-12-20T09:32:26;100170.63;;;5.88;100.00
49945;BME280;35838;49.134;9.212;2023-12-20T09:34:00;100169.97;;;5.99;100.00
49945;BME280;35838;49.134;9.212;2023-12-20T09:35:34;100181.22;;;6.01;100.00
49945;BME280;35838;49.134;9.212;2023-12-20T09:37:07;100164.81;;;5.99;100.00
49945;BME280;35838;49.134;9.212;2023-12-20T09:38:39;100166.59;;;6.00;100.00
49945;BME280;35838;49.134;9.212;2023-12-20T09:40:13;100158.25;;;6.13;100.00
49945;BME280;35838;49.134;9.212;2023-12-20T09:41:44;100177.06;;;6.09;100.00
49945;BME280;35838;49.134;9.212;2023-12-20T09:43:18;100172.81;;;6.11;100.00
49945;BME280;35838;49.134;9.212;2023-12-20T09:44:53;100169.88;;;5.92;100.00
49945;BME280;35838;49.134;9.212;2023-12-20T09:46:24;100171.09;;;6.10;100.00
49945;BME280;35838;49.134;9.212;2023-12-20T09:48:00;100165.78;;;6.02;100.00
49945;BME280;35838;49.134;9.212;2023-12-20T09:49:32;100171.81;;;6.03;100.00
49945;BME280;35838;49.134;9.212;2023-12-20T09:51:08;100164.22;;;6.10;100.00
49945;BME280;35838;49.134;9.212;2023-12-20T09:52:40;100171.09;;;6.10;100.00
49945;BME280;35838;49.134;9.212;2023-12-20T09:54:15;100164.22;;;6.10;100.00
49945;BME280;35838;49.134;9.212;2023-12-20T09:55:46;100166.84;;;6.12;100.00
49945;BME280;35838;49.134;9.212;2023-12-20T09:57:20;100166.06;;;6.18;100.00
49945;BME280;35838;49.134;9.212;2023-12-20T09:58:51;100172.06;;;6.17;100.00
49945;BME280;35838;49.134;9.212;2023-12-20T10:00:25;100172.00;;;6.12;100.00
49945;BME280;35838;49.134;9.212;2023-12-20T10:01:56;100168.41;;;6.04;100.00
49945;BME280;35838;49.134;9.212;2023-12-20T10:03:30;100171.13;;;6.13;100.00
49945;BME280;35838;49.134;9.212;2023-12-20T10:05:01;100161.88;;;6.24;100.00
49945;BME280;35838;49.134;9.212;2023-12-20T10:06:38;100167.03;;;6.24;100.00
49945;BME280;35838;49.134;9.212;2023-12-20T10:08:09;100167.31;;;6.40;100.00
49945;BME280;35838;49.134;9.212;2023-12-20T10:09:43;100163.63;;;6.27;100.00
49945;BME280;35838;49.134;9.212;2023-12-20T10:11:14;100170.63;;;6.33;100.00
49945;BME280;35838;49.134;9.212;2023-12-20T10:13:00;100157.94;;;6.45;100.00
49945;BME280;35838;49.134;9.212;2023-12-20T10:14:34;100171.38;;;6.27;100.00
49945;BME280;35838;49.134;9.212;2023-12-20T10:16:05;100167.94;;;6.26;100.00
49945;BME280;35838;49.134;9.212;2023-12-20T10:17:39;100173.84;;;6.19;100.00
49945;BME280;35838;49.134;9.212;2023-12-20T10:19:10;100191.16;;;6.26;100.00
49945;BME280;35838;49.134;9.212;2023-12-20T10:20:44;100166.53;;;6.44;100.00
49945;BME280;35838;49.134;9.212;2023-12-20T10:22:17;100165.88;;;6.57;100.00
49945;BME280;35838;49.134;9.212;2023-12-20T10:23:51;100162.59;;;6.66;100.00
49945;BME280;35838;49.134;9.212;2023-12-20T10:25:22;100166.22;;;6.78;100.00
49945;BME280;35838;49.134;9.212;2023-12-20T10:27:02;100154.16;;;6.77;100.00
49945;BME280;35838;49.134;9.212;2023-12-20T10:28:34;100162.75;;;6.77;100.00
49945;BME280;35838;49.134;9.212;2023-12-20T10:30:09;100171.47;;;6.85;100.00
49945;BME280;35838;49.134;9.212;2023-12-20T10:31:40;100168.06;;;6.86;100.00
49945;BME280;35838;49.134;9.212;2023-12-20T10:33:18;100153.41;;;6.85;100.00
49945;BME280;35838;49.134;9.212;2023-12-20T10:34:56;100165.41;;;6.83;100.00
49945;BME280;35838;49.134;9.212;2023-12-20T10:36:28;100154.25;;;6.84;100.00
49945;BME280;35838;49.134;9.212;2023-12-20T10:38:05;100153.31;;;6.78;100.00
49945;BME280;35838;49.134;9.212;2023-12-20T10:39:37;100151.44;;;6.67;100.00
49945;BME280;35838;49.134;9.212;2023-12-20T10:41:12;100168.56;;;6.64;100.00
49945;BME280;35838;49.134;9.212;2023-12-20T10:42:47;100179.50;;;6.49;100.00
49945;BME280;35838;49.134;9.212;2023-12-20T10:44:21;100154.41;;;6.40;100.00
49945;BME280;35838;49.134;9.212;2023-12-20T10:45:52;100160.47;;;6.42;100.00
49945;BME280;35838;49.134;9.212;2023-12-20T10:47:26;100159.38;;;6.29;100.00
49945;BME280;35838;49.134;9.212;2023-12-20T10:48:58;100160.47;;;6.42;100.00
49945;BME280;35838;49.134;9.212;2023-12-20T10:50:32;100154.03;;;6.70;100.00
49945;BME280;35838;49.134;9.212;2023-12-20T10:52:06;100153.97;;;6.66;100.00
49945;BME280;35838;49.134;9.212;2023-12-20T10:53:44;100160.94;;;6.70;100.00
49945;BME280;35838;49.134;9.212;2023-12-20T10:55:17;100153.34;;;6.81;100.00
49945;BME280;35838;49.134;9.212;2023-12-20T10:56:51;100154.25;;;6.84;100.00
49945;BME280;35838;49.134;9.212;2023-12-20T10:58:22;100157.88;;;6.96;100.00
49945;BME280;35838;49.134;9.212;2023-12-20T10:59:58;100167.38;;;6.98;100.00
49945;BME280;35838;49.134;9.212;2023-12-20T11:01:31;100156.19;;;6.98;100.00
49945;BME280;35838;49.134;9.212;2023-12-20T11:03:05;100154.53;;;7.03;100.00
49945;BME280;35838;49.134;9.212;2023-12-20T11:04:41;100139.22;;;7.15;100.00
49945;BME280;35838;49.134;9.212;2023-12-20T11:08:07;100143.50;;;7.15;100.00
49945;BME280;35838;49.134;9.212;2023-12-20T11:09:43;100136.72;;;7.21;100.00
49945;BME280;35838;49.134;9.212;2023-12-20T11:11:20;100130.78;;;7.29;100.00
49945;BME280;35838;49.134;9.212;2023-12-20T11:12:58;100140.28;;;7.30;100.00
49945;BME280;35838;49.134;9.212;2023-12-20T11:14:35;100120.34;;;7.19;100.00
49945;BME280;35838;49.134;9.212;2023-12-20T11:16:09;100144.03;;;7.55;100.00
49945;BME280;35838;49.134;9.212;2023-12-20T11:17:44;100144.72;;;7.40;100.00
49945;BME280;35838;49.134;9.212;2023-12-20T11:19:15;100143.97;;;7.50;100.00
49945;BME280;35838;49.134;9.212;2023-12-20T11:20:50;100146.50;;;7.47;100.00
49945;BME280;35838;49.134;9.212;2023-12-20T11:22:21;100135.03;;;7.22;100.00
49945;BME280;35838;49.134;9.212;2023-12-20T11:23:54;100146.69;;;6.95;100.00
49945;BME280;35838;49.134;9.212;2023-12-20T11:25:28;100132.06;;;6.96;100.00
49945;BME280;35838;49.134;9.212;2023-12-20T11:27:02;100142.16;;;6.80;100.00
49945;BME280;35838;49.134;9.212;2023-12-20T11:28:33;100141.81;;;6.58;100.00
49945;BME280;35838;49.134;9.212;2023-12-20T11:30:07;100135.44;;;6.36;100.00
49945;BME280;35838;49.134;9.212;2023-12-20T11:31:39;100132.28;;;6.53;100.00
49945;BME280;35838;49.134;9.212;2023-12-20T11:33:13;100132.38;;;6.59;100.00
49945;BME280;35838;49.134;9.212;2023-12-20T11:34:45;100135.41;;;6.88;100.00
49945;BME280;35838;49.134;9.212;2023-12-20T11:36:18;100123.66;;;7.09;100.00
49945;BME280;35838;49.134;9.212;2023-12-20T11:37:52;100128.34;;;6.77;100.00
49945;BME280;35838;49.134;9.212;2023-12-20T11:39:23;100125.91;;;6.86;100.00
49945;BME280;35838;49.134;9.212;2023-12-20T11:41:01;100123.53;;;7.00;100.00
49945;BME280;35838;49.134;9.212;2023-12-20T11:42:37;100119.28;;;7.05;100.00
49945;BME280;35838;49.134;9.212;2023-12-20T11:44:08;100116.34;;;6.79;100.00
49945;BME280;35838;49.134;9.212;2023-12-20T11:45:47;100115.59;;;6.86;100.00
49945;BME280;35838;49.134;9.212;2023-12-20T11:47:19;100117.44;;;6.95;100.00
49945;BME280;35838;49.134;9.212;2023-12-20T11:48:54;100112.59;;;7.19;100.00
49945;BME280;35838;49.134;9.212;2023-12-20T11:50:25;100111.09;;;7.35;100.00
49945;BME280;35838;49.134;9.212;2023-12-20T11:52:00;100112.16;;;7.51;100.00
49945;BME280;35838;49.134;9.212;2023-12-20T11:53:31;100119.16;;;7.62;100.00
49945;BME280;35838;49.134;9.212;2023-12-20T11:55:05;100105.41;;;6.95;100.00
49945;BME280;35838;49.134;9.212;2023-12-20T11:56:39;100111.16;;;6.76;100.00
49945;BME280;35838;49.134;9.212;2023-12-20T11:58:13;100104.16;;;6.68;100.00
49945;BME280;35838;49.134;9.212;2023-12-20T11:59:44;100101.59;;;6.68;100.00
49945;BME280;35838;49.134;9.212;2023-12-20T12:01:19;100109.38;;;6.73;100.00
49945;BME280;35838;49.134;9.212;2023-12-20T12:02:57;100106.25;;;6.94;100.00
49945;BME280;35838;49.134;9.212;2023-12-20T12:04:32;100109.75;;;7.01;100.00
49945;BME280;35838;49.134;9.212;2023-12-20T12:06:03;100109.41;;;7.37;100.00
49945;BME280;35838;49.134;9.212;2023-12-20T12:07:38;100112.25;;;7.61;100.00
49945;BME280;35838;49.134;9.212;2023-12-20T12:09:09;100117.03;;;7.30;100.00
49945;BME280;35838;49.134;9.212;2023-12-20T12:10:43;100114.63;;;7.42;100.00
49945;BME280;35838;49.134;9.212;2023-12-20T12:12:20;100108.50;;;7.37;100.00
49945;BME280;35838;49.134;9.212;2023-12-20T12:13:51;100111.78;;;7.22;100.00
49945;BME280;35838;49.134;9.212;2023-12-20T12:15:25;100105.59;;;7.09;100.00
49945;BME280;35838;49.134;9.212;2023-12-20T12:16:56;100115.75;;;6.97;100.00
49945;BME280;35838;49.134;9.212;2023-12-20T12:18:29;100111.41;;;6.96;100.00
49945;BME280;35838;49.134;9.212;2023-12-20T12:20:04;100116.50;;;6.89;100.00
49945;BME280;35838;49.134;9.212;2023-12-20T12:21:39;100112.84;;;6.75;100.00
49945;BME280;35838;49.134;9.212;2023-12-20T12:23:10;100103.53;;;6.85;100.00
49945;BME280;35838;49.134;9.212;2023-12-20T12:24:43;100106.44;;;7.08;100.00
49945;BME280;35838;49.134;9.212;2023-12-20T12:26:14;100105.44;;;6.98;100.00
49945;BME280;35838;49.134;9.212;2023-12-20T12:27:51;100106.06;;;6.83;100.00
49945;BME280;35838;49.134;9.212;2023-12-20T12:29:22;100106.06;;;6.83;100.00
49945;BME280;35838;49.134;9.212;2023-12-20T12:30:56;100098.94;;;6.65;100.00
49945;BME280;35838;49.134;9.212;2023-12-20T12:32:27;100102.44;;;6.69;100.00
49945;BME280;35838;49.134;9.212;2023-12-20T12:34:01;100092.38;;;6.87;100.00
49945;BME280;35838;49.134;9.212;2023-12-20T12:35:32;100107.22;;;7.04;100.00
49945;BME280;35838;49.134;9.212;2023-12-20T12:37:05;100095.03;;;6.92;100.00
49945;BME280;35838;49.134;9.212;2023-12-20T12:38:36;100121.94;;;7.11;100.00
49945;BME280;35838;49.134;9.212;2023-12-20T12:40:10;100107.16;;;6.98;100.00
49945;BME280;35838;49.134;9.212;2023-12-20T12:41:42;100108.91;;;7.00;100.00
49945;BME280;35838;49.134;9.212;2023-12-20T12:43:18;100112.06;;;6.79;100.00
49945;BME280;35838;49.134;9.212;2023-12-20T12:44:49;100116.94;;;6.62;100.00
49945;BME280;35838;49.134;9.212;2023-12-20T12:46:22;100111.97;;;6.74;100.00
49945;BME280;35838;49.134;9.212;2023-12-20T12:47:56;100124.09;;;6.79;100.00
49945;BME280;35838;49.134;9.212;2023-12-20T12:49:28;100119.31;;;6.48;100.00
49945;BME280;35838;49.134;9.212;2023-12-20T12:51:02;100102.81;;;6.38;100.00
49945;BME280;35838;49.134;9.212;2023-12-20T12:52:33;100110.56;;;6.40;100.00
49945;BME280;35838;49.134;9.212;2023-12-20T12:54:06;100107.84;;;6.31;100.00
49945;BME280;35838;49.134;9.212;2023-12-20T12:55:38;100112.88;;;6.21;100.00
49945;BME280;35838;49.134;9.212;2023-12-20T12:57:11;100099.84;;;6.14;100.00
49945;BME280;35838;49.134;9.212;2023-12-20T12:58:47;100095.75;;;6.25;100.00
49945;BME280;35838;49.134;9.212;2023-12-20T13:00:19;100110.44;;;6.31;100.00
49945;BME280;35838;49.134;9.212;2023-12-20T13:01:53;100113.00;;;6.29;100.00
49945;BME280;35838;49.134;9.212;2023-12-20T13:03:24;100109.47;;;6.24;100.00
49945;BME280;35838;49.134;9.212;2023-12-20T13:04:57;100110.50;;;6.34;100.00
49945;BME280;35838;49.134;9.212;2023-12-20T13:06:29;100109.88;;;6.49;100.00
49945;BME280;35838;49.134;9.212;2023-12-20T13:08:03;100112.31;;;6.41;100.00
49945;BME280;35838;49.134;9.212;2023-12-20T13:09:34;100112.31;;;6.39;100.00
49945;BME280;35838;49.134;9.212;2023-12-20T13:11:08;100123.81;;;6.08;100.00
49945;BME280;35838;49.134;9.212;2023-12-20T13:12:39;100112.56;;;6.04;100.00
49945;BME280;35838;49.134;9.212;2023-12-20T13:14:15;100113.44;;;6.05;100.00
49945;BME280;35838;49.134;9.212;2023-12-20T13:15:47;100105.69;;;6.03;100.00
49945;BME280;35838;49.134;9.212;2023-12-20T13:17:23;100108.44;;;6.14;100.00
49945;BME280;35838;49.134;9.212;2023-12-20T13:18:54;100110.16;;;6.15;100.00
49945;BME280;35838;49.134;9.212;2023-12-20T13:20:29;100116.38;;;6.25;100.00
49945;BME280;35838;49.134;9.212;2023-12-20T13:22:00;100107.69;;;6.20;100.00
49945;BME280;35838;49.134;9.212;2023-12-20T13:23:34;100105.97;;;6.20;100.00
49945;BME280;35838;49.134;9.212;2023-12-20T13:25:08;100111.00;;;6.14;100.00
49945;BME280;35838;49.134;9.212;2023-12-20T13:26:39;100117.66;;;6.01;100.00
49945;BME280;35838;49.134;9.212;2023-12-20T13:28:12;100111.44;;;5.91;100.00
49945;BME280;35838;49.134;9.212;2023-12-20T13:29:46;100117.41;;;5.89;100.00
49945;BME280;35838;49.134;9.212;2023-12-20T13:31:20;100115.72;;;5.91;100.00
49945;BME280;35838;49.134;9.212;2023-12-20T13:32:51;100113.13;;;5.89;100.00
49945;BME280;35838;49.134;9.212;2023-12-20T13:34:25;100114.78;;;5.87;100.00
49945;BME280;35838;49.134;9.212;2023-12-20T13:35:56;100114.22;;;5.99;100.00
49945;BME280;35838;49.134;9.212;2023-12-20T13:37:30;100113.38;;;6.02;100.00
49945;BME280;35838;49.134;9.212;2023-12-20T13:39:01;100105.75;;;6.08;100.00
49945;BME280;35838;49.134;9.212;2023-12-20T13:40:35;100114.25;;;6.02;100.00
49945;BME280;35838;49.134;9.212;2023-12-20T13:42:09;100118.22;;;5.86;100.00
49945;BME280;35838;49.134;9.212;2023-12-20T13:43:40;100106.22;;;5.88;100.00
49945;BME280;35838;49.134;9.212;2023-12-20T13:45:16;100113.78;;;5.77;100.00
49945;BME280;35838;49.134;9.212;2023-12-20T13:46:47;100107.97;;;5.89;100.00
49945;BME280;35838;49.134;9.212;2023-12-20T13:48:22;100107.22;;;5.95;100.00
49945;BME280;35838;49.134;9.212;2023-12-20T13:49:53;100116.50;;;5.85;100.00
49945;BME280;35838;49.134;9.212;2023-12-20T13:51:27;100103.72;;;5.90;100.00
49945;BME280;35838;49.134;9.212;2023-12-20T13:52:58;100097.59;;;5.86;100.00
49945;BME280;35838;49.134;9.212;2023-12-20T13:54:31;100101.00;;;5.84;100.00
49945;BME280;35838;49.134;9.212;2023-12-20T13:56:05;100099.22;;;5.81;100.00
49945;BME280;35838;49.134;9.212;2023-12-20T13:57:37;100089.91;;;5.88;100.00
49945;BME280;35838;49.134;9.212;2023-12-20T13:59:12;100091.41;;;5.76;100.00
49945;BME280;35838;49.134;9.212;2023-12-20T14:00:47;100082.09;;;5.83;100.00
49945;BME280;35838;49.134;9.212;2023-12-20T14:02:20;100070.81;;;5.76;100.00
49945;BME280;35838;49.134;9.212;2023-12-20T14:03:51;100087.66;;;5.57;100.00
49945;BME280;35838;49.134;9.212;2023-12-20T14:05:25;100077.94;;;5.44;100.00
49945;BME280;35838;49.134;9.212;2023-12-20T14:06:57;100075.31;;;5.41;100.00
49945;BME280;35838;49.134;9.212;2023-12-20T14:08:31;100077.06;;;5.43;100.00
49945;BME280;35838;49.134;9.212;2023-12-20T14:10:02;100071.19;;;5.49;100.00
49945;BME280;35838;49.134;9.212;2023-12-20T14:11:37;100070.28;;;5.48;100.00
49945;BME280;35838;49.134;9.212;2023-12-20T14:13:11;100069.56;;;5.54;100.00
49945;BME280;35838;49.134;9.212;2023-12-20T14:14:45;100071.13;;;5.46;100.00
49945;BME280;35838;49.134;9.212;2023-12-20T14:16:19;100066.59;;;5.34;100.00
49945;BME280;35838;49.134;9.212;2023-12-20T14:17:52;100055.28;;;5.26;100.00
49945;BME280;35838;49.134;9.212;2023-12-20T14:19:24;100060.34;;;5.23;100.00
49945;BME280;35838;49.134;9.212;2023-12-20T14:20:57;100074.88;;;5.21;100.00
49945;BME280;35838;49.134;9.212;2023-12-20T14:22:28;100063.81;;;5.23;100.00
49945;BME280;35838;49.134;9.212;2023-12-20T14:24:02;100057.13;;;5.33;100.00
49945;BME280;35838;49.134;9.212;2023-12-20T14:25:37;100052.78;;;5.29;100.00
49945;BME280;35838;49.134;9.212;2023-12-20T14:27:08;100065.59;;;5.27;100.00
49945;BME280;35838;49.134;9.212;2023-12-20T14:28:41;100066.25;;;5.17;100.00
49945;BME280;35838;49.134;9.212;2023-12-20T14:30:13;100065.66;;;5.29;100.00
49945;BME280;35838;49.134;9.212;2023-12-20T14:31:50;100068.16;;;5.26;100.00
49945;BME280;35838;49.134;9.212;2023-12-20T14:33:21;100059.72;;;5.33;100.00
49945;BME280;35838;49.134;9.212;2023-12-20T14:34:55;100062.53;;;5.45;100.00
49945;BME280;35838;49.134;9.212;2023-12-20T14:36:26;100052.25;;;5.47;100.00
49945;BME280;35838;49.134;9.212;2023-12-20T14:38:01;100052.00;;;5.34;100.00
49945;BME280;35838;49.134;9.212;2023-12-20T14:39:35;100052.16;;;5.42;100.00
49945;BME280;35838;49.134;9.212;2023-12-20T14:41:09;100054.75;;;5.44;100.00
49945;BME280;35838;49.134;9.212;2023-12-20T14:42:43;100055.00;;;5.55;100.00
49945;BME280;35838;49.134;9.212;2023-12-20T14:44:14;100048.84;;;5.48;100.00
49945;BME280;35838;49.134;9.212;2023-12-20T14:45:48;100049.84;;;5.55;100.00
49945;BME280;35838;49.134;9.212;2023-12-20T14:47:22;100050.44;;;5.41;100.00
49945;BME280;35838;49.134;9.212;2023-12-20T14:48:55;100042.72;;;5.43;100.00
49945;BME280;35838;49.134;9.212;2023-12-20T14:50:26;100040.41;;;5.55;100.00
49945;BME280;35838;49.134;9.212;2023-12-20T14:52:00;100031.66;;;5.47;100.00
49945;BME280;35838;49.134;9.212;2023-12-20T14:53:31;100029.91;;;5.46;100.00
49945;BME280;35838;49.134;9.212;2023-12-20T14:55:06;100032.59;;;5.51;100.00
49945;BME280;35838;49.134;9.212;2023-12-20T14:56:38;100046.25;;;5.46;100.00
49945;BME280;35838;49.134;9.212;2023-12-20T14:58:11;100041.06;;;5.45;100.00
49945;BME280;35838;49.134;9.212;2023-12-20T14:59:42;100042.13;;;5.55;100.00
49945;BME280;35838;49.134;9.212;2023-12-20T15:01:16;100040.50;;;5.61;100.00
49945;BME280;35838;49.134;9.212;2023-12-20T15:02:54;100052.72;;;5.72;100.00
49945;BME280;35838;49.134;9.212;2023-12-20T15:04:27;100044.63;;;5.52;100.00
49945;BME280;35838;49.134;9.212;2023-12-20T15:05:59;100042.03;;;5.50;100.00
49945;BME280;35838;49.134;9.212;2023-12-20T15:07:33;100054.25;;;5.62;100.00
49945;BME280;35838;49.134;9.212;2023-12-20T15:09:04;100044.91;;;5.67;100.00
49945;BME280;35838;49.134;9.212;2023-12-20T15:10:39;100051.69;;;5.63;100.00
49945;BME280;35838;49.134;9.212;2023-12-20T15:12:10;100030.25;;;5.64;100.00
49945;BME280;35838;49.134;9.212;2023-12-20T15:13:43;100030.00;;;5.49;100.00
49945;BME280;35838;49.134;9.212;2023-12-20T15:15:19;100028.53;;;5.63;100.00
49945;BME280;35838;49.134;9.212;2023-12-20T15:16:53;100039.47;;;5.52;100.00
49945;BME280;35838;49.134;9.212;2023-12-20T15:18:26;100040.47;;;5.58;100.00
49945;BME280;35838;49.134;9.212;2023-12-20T15:20:01;100042.03;;;5.52;100.00
49945;BME280;35838;49.134;9.212;2023-12-20T15:21:33;100049.56;;;5.41;100.00
49945;BME280;35838;49.134;9.212;2023-12-20T15:23:11;100046.06;;;5.37;100.00
49945;BME280;35838;49.134;9.212;2023-12-20T15:24:44;100057.13;;;5.31;100.00
49945;BME280;35838;49.134;9.212;2023-12-20T15:26:17;100048.78;;;5.45;100.00
49945;BME280;35838;49.134;9.212;2023-12-20T15:27:50;100047.09;;;5.47;100.00
49945;BME280;35838;49.134;9.212;2023-12-20T15:29:23;100027.16;;;5.35;100.00
49945;BME280;35838;49.134;9.212;2023-12-20T15:30:57;100030.81;;;5.46;100.00
49945;BME280;35838;49.134;9.212;2023-12-20T15:32:28;100029.06;;;5.45;100.00
49945;BME280;35838;49.134;9.212;2023-12-20T15:34:05;100022.22;;;5.47;100.00
49945;BME280;35838;49.134;9.212;2023-12-20T15:35:36;100023.00;;;5.42;100.00
49945;BME280;35838;49.134;9.212;2023-12-20T15:37:10;100024.00;;;5.50;100.00
49945;BME280;35838;49.134;9.212;2023-12-20T15:38:41;100028.81;;;5.33;100.00
49945;BME280;35838;49.134;9.212;2023-12-20T15:40:17;100022.13;;;5.41;100.00
49945;BME280;35838;49.134;9.212;2023-12-20T15:41:48;100039.69;;;5.18;100.00
49945;BME280;35838;49.134;9.212;2023-12-20T15:43:22;100025.31;;;5.29;100.00
49945;BME280;35838;49.134;9.212;2023-12-20T15:44:53;100028.72;;;5.27;100.00
49945;BME280;35838;49.134;9.212;2023-12-20T15:46:27;100032.78;;;5.17;100.00
49945;BME280;35838;49.134;9.212;2023-12-20T15:47:58;100039.50;;;5.09;100.00
49945;BME280;35838;49.134;9.212;2023-12-20T15:49:35;100033.59;;;5.13;100.00
49945;BME280;35838;49.134;9.212;2023-12-20T15:51:06;100030.19;;;5.15;100.00
49945;BME280;35838;49.134;9.212;2023-12-20T15:52:40;100043.09;;;5.17;100.00
49945;BME280;35838;49.134;9.212;2023-12-20T15:54:13;100032.88;;;5.20;100.00
49945;BME280;35838;49.134;9.212;2023-12-20T15:55:44;100039.81;;;5.24;100.00
49945;BME280;35838;49.134;9.212;2023-12-20T15:57:18;100039.88;;;5.27;100.00
49945;BME280;35838;49.134;9.212;2023-12-20T15:58:49;100033.91;;;5.30;100.00
49945;BME280;35838;49.134;9.212;2023-12-20T16:00:25;100034.59;;;5.21;100.00
49945;BME280;35838;49.134;9.212;2023-12-20T16:01:56;100040.47;;;5.14;100.00
49945;BME280;35838;49.134;9.212;2023-12-20T16:03:30;100037.72;;;5.06;100.00
49945;BME280;35838;49.134;9.212;2023-12-20T16:05:03;100031.03;;;5.14;100.00
49945;BME280;35838;49.134;9.212;2023-12-20T16:06:38;100041.22;;;5.10;100.00
49945;BME280;35838;49.134;9.212;2023-12-20T16:08:11;100032.59;;;5.08;100.00
49945;BME280;35838;49.134;9.212;2023-12-20T16:09:42;100034.16;;;4.99;100.00
49945;BME280;35838;49.134;9.212;2023-12-20T16:11:16;100037.72;;;5.05;100.00
49945;BME280;35838;49.134;9.212;2023-12-20T16:12:47;100048.66;;;4.96;100.00
49945;BME280;35838;49.134;9.212;2023-12-20T16:14:21;100038.44;;;4.97;100.00
49945;BME280;35838;49.134;9.212;2023-12-20T16:15:52;100037.72;;;5.05;100.00
49945;BME280;35838;49.134;9.212;2023-12-20T16:17:25;100035.91;;;5.00;100.00
49945;BME280;35838;49.134;9.212;2023-12-20T16:18:57;100038.38;;;4.96;100.00
49945;BME280;35838;49.134;9.212;2023-12-20T16:20:33;100039.38;;;5.02;100.00
49945;BME280;35838;49.134;9.212;2023-12-20T16:22:04;100019.81;;;5.11;100.00
49945;BME280;35838;49.134;9.212;2023-12-20T16:23:37;100018.09;;;5.11;100.00
49945;BME280;35838;49.134;9.212;2023-12-20T16:25:08;100025.78;;;5.10;100.00
49945;BME280;35838;49.134;9.212;2023-12-20T16:26:42;100014.69;;;5.12;100.00
49945;BME280;35838;49.134;9.212;2023-12-20T16:28:13;100018.25;;;5.17;100.00
49945;BME280;35838;49.134;9.212;2023-12-20T16:29:47;100021.81;;;5.24;100.00
49945;BME280;35838;49.134;9.212;2023-12-20T16:31:18;100028.66;;;5.25;100.00
49945;BME280;35838;49.134;9.212;2023-12-20T16:32:51;100025.16;;;5.22;100.00
49945;BME280;35838;49.134;9.212;2023-12-20T16:34:23;100031.00;;;5.13;100.00
49945;BME280;35838;49.134;9.212;2023-12-20T16:35:59;100025.13;;;5.18;100.00
49945;BME280;35838;49.134;9.212;2023-12-20T16:37:30;100024.13;;;5.12;100.00
49945;BME280;35838;49.134;9.212;2023-12-20T16:39:08;100031.22;;;5.25;100.00
49945;BME280;35838;49.134;9.212;2023-12-20T16:40:39;100028.63;;;5.22;100.00
49945;BME280;35838;49.134;9.212;2023-12-20T16:42:14;100037.28;;;5.26;100.00
49945;BME280;35838;49.134;9.212;2023-12-20T16:43:45;100037.09;;;5.16;100.00
49945;BME280;35838;49.134;9.212;2023-12-20T16:45:19;100026.78;;;5.15;100.00
49945;BME280;35838;49.134;9.212;2023-12-20T16:46:50;100029.28;;;5.12;100.00
49945;BME280;35838;49.134;9.212;2023-12-20T16:48:24;100029.28;;;5.12;100.00
49945;BME280;35838;49.134;9.212;2023-12-20T16:49:55;100031.00;;;5.13;100.00
49945;BME280;35838;49.134;9.212;2023-12-20T16:51:31;100024.19;;;5.15;100.00
49945;BME280;35838;49.134;9.212;2023-12-20T16:53:05;100026.69;;;5.12;100.00
49945;BME280;35838;49.134;9.212;2023-12-20T16:54:39;100029.28;;;5.12;100.00
49945;BME280;35838;49.134;9.212;2023-12-20T16:56:10;100035.34;;;5.15;100.00
49945;BME280;35838;49.134;9.212;2023-12-20T16:57:43;100038.00;;;5.18;100.00
49945;BME280;35838;49.134;9.212;2023-12-20T16:59:14;100034.59;;;5.21;100.00
49945;BME280;35838;49.134;9.212;2023-12-20T17:00:48;100046.69;;;5.25;100.00
49945;BME280;35838;49.134;9.212;2023-12-20T17:02:19;100042.34;;;5.23;100.00
49945;BME280;35838;49.134;9.212;2023-12-20T17:03:53;100035.50;;;5.23;100.00
49945;BME280;35838;49.134;9.212;2023-12-20T17:05:24;100044.91;;;5.23;100.00
49945;BME280;35838;49.134;9.212;2023-12-20T17:07:00;100039.75;;;5.21;100.00
49945;BME280;35838;49.134;9.212;2023-12-20T17:08:31;100039.75;;;5.21;100.00
49945;BME280;35838;49.134;9.212;2023-12-20T17:10:06;100035.50;;;5.23;100.00
49945;BME280;35838;49.134;9.212;2023-12-20T17:11:37;100044.19;;;5.28;100.00
49945;BME280;35838;49.134;9.212;2023-12-20T17:13:11;100030.50;;;5.31;100.00